Time;durP1;ratioP1;P1;durP2;ratioP2;P2;SDS_P1;SDS_P2;PMS_P1;PMS_P2;Temp;Humidity;BMP_temperature;BMP_pressure;BME280_temperature;BME280_humidity;BME280_pressure;Samples;Min_cycle;Max_cycle;Signal;HPM_P1;HPM_P2
2023/05/28 00:01:48;;;;;;;8.98;6.07;;;;;;;;;;5099155;28;20377;-67
2023/05/28 00:04:14;;;;;;;16.55;6.38;;;;;;;;;;5112246;28;20028;-68
2023/05/28 00:06:39;;;;;;;9.68;5.88;;;;;;;;;;5113747;28;20084;-68
2023/05/28 00:09:05;;;;;;;12.10;6.47;;;;;;;;;;5113608;28;20065;-68
2023/05/28 00:11:30;;;;;;;12.05;6.80;;;;;;;;;;5114537;28;20390;-68
2023/05/28 00:13:55;;;;;;;15.30;7.80;;;;;;;;;;5113785;28;20030;-68
2023/05/28 00:16:21;;;;;;;19.25;7.57;;;;;;;;;;5113478;28;20015;-68
2023/05/28 00:18:46;;;;;;;22.95;7.53;;;;;;;;;;5111756;28;20501;-68
2023/05/28 00:21:11;;;;;;;13.55;7.13;;;;;;;;;;5112998;28;20023;-68
2023/05/28 00:23:37;;;;;;;12.02;6.30;;;;;;;;;;5112011;28;20032;-68
2023/05/28 00:26:02;;;;;;;12.60;6.80;;;;;;;;;;5114018;28;20084;-68
2023/05/28 00:28:28;;;;;;;10.50;6.30;;;;;;;;;;5111592;28;20039;-68
2023/05/28 00:30:53;;;;;;;12.93;6.53;;;;;;;;;;5113003;28;20043;-68
2023/05/28 00:33:18;;;;;;;12.05;6.72;;;;;;;;;;5111806;28;20027;-68
2023/05/28 00:35:43;;;;;;;14.80;6.85;;;;;;;;;;5114364;28;20031;-68
2023/05/28 00:38:09;;;;;;;13.60;6.75;;;;;;;;;;5103250;28;20028;-68
2023/05/28 00:40:34;;;;;;;14.75;7.15;;;;;;;;;;5107094;28;20016;-68
2023/05/28 00:43:00;;;;;;;14.35;5.97;;;;;;;;;;5093949;28;20039;-68
2023/05/28 00:45:25;;;;;;;9.10;5.90;;;;;;;;;;5093450;28;20378;-68
2023/05/28 00:47:51;;;;;;;10.05;6.25;;;;;;;;;;5093449;28;20379;-68
2023/05/28 00:50:17;;;;;;;8.05;5.68;;;;;;;;;;5093870;28;20024;-68
2023/05/28 00:52:43;;;;;;;10.40;6.03;;;;;;;;;;5096632;28;20489;-68
2023/05/28 00:55:15;;;;;;;9.63;5.97;;;;;;;;;;5092827;28;20028;-68
2023/05/28 00:57:41;;;;;;;10.35;6.28;;;;;;;;;;5097004;28;20097;-68
2023/05/28 01:00:08;;;;;;;11.13;6.10;;;;;;;;;;5093091;28;20020;-68
2023/05/28 01:02:33;;;;;;;11.90;6.55;;;;;;;;;;5097998;28;20020;-68
2023/05/28 01:04:58;;;;;;;15.65;7.22;;;;;;;;;;5102060;28;20078;-68
2023/05/28 01:07:24;;;;;;;8.18;5.70;;;;;;;;;;5094364;28;20073;-68
2023/05/28 01:09:49;;;;;;;12.65;6.90;;;;;;;;;;5093053;28;20024;-68
2023/05/28 01:12:15;;;;;;;9.77;6.32;;;;;;;;;;5107235;28;20016;-68
2023/05/28 01:14:40;;;;;;;15.43;6.30;;;;;;;;;;5113269;28;20019;-68
2023/05/28 01:17:06;;;;;;;9.82;6.28;;;;;;;;;;5112042;28;20114;-68
2023/05/28 01:19:31;;;;;;;13.52;6.60;;;;;;;;;;5113484;28;20093;-68
2023/05/28 01:22:01;;;;;;;13.40;7.20;;;;;;;;;;5112008;28;20027;-68
2023/05/28 01:24:28;;;;;;;12.93;6.30;;;;;;;;;;5112716;28;20035;-68
2023/05/28 01:26:54;;;;;;;15.25;6.70;;;;;;;;;;5111995;28;20216;-68
2023/05/28 01:29:19;;;;;;;9.88;6.53;;;;;;;;;;5112308;28;20102;-68
2023/05/28 01:31:45;;;;;;;11.32;6.30;;;;;;;;;;5092686;28;20035;-68
2023/05/28 01:34:10;;;;;;;13.43;7.10;;;;;;;;;;5092589;28;20023;-68
2023/05/28 01:36:38;;;;;;;16.35;6.95;;;;;;;;;;5092815;28;20521;-68
2023/05/28 01:39:04;;;;;;;11.30;6.25;;;;;;;;;;5093537;28;20121;-68
2023/05/28 01:41:30;;;;;;;19.88;7.05;;;;;;;;;;5105205;28;20470;-68
2023/05/28 01:43:55;;;;;;;8.82;5.05;;;;;;;;;;5092509;28;20122;-68
2023/05/28 01:46:21;;;;;;;8.68;6.70;;;;;;;;;;5100139;28;20535;-69
2023/05/28 01:48:46;;;;;;;8.57;6.65;;;;;;;;;;5098785;28;20024;-68
2023/05/28 01:51:15;;;;;;;14.93;7.47;;;;;;;;;;5111238;28;20035;-68
2023/05/28 01:53:40;;;;;;;10.52;6.75;;;;;;;;;;5110814;28;20094;-68
2023/05/28 01:56:06;;;;;;;12.90;7.38;;;;;;;;;;5111268;28;20110;-68
2023/05/28 01:58:31;;;;;;;14.32;6.85;;;;;;;;;;5110162;28;20027;-68
2023/05/28 02:01:05;;;;;;;13.52;7.32;;;;;;;;;;5104088;28;20509;-68
2023/05/28 02:03:30;;;;;;;8.47;6.67;;;;;;;;;;5106478;28;20077;-68
2023/05/28 02:05:55;;;;;;;14.13;7.00;;;;;;;;;;5111080;28;20031;-68
2023/05/28 02:08:20;;;;;;;13.48;7.78;;;;;;;;;;5111725;28;20032;-68
2023/05/28 02:10:46;;;;;;;12.32;7.65;;;;;;;;;;5110069;28;20505;-68
2023/05/28 02:13:11;;;;;;;10.60;6.47;;;;;;;;;;5111447;28;20024;-68
2023/05/28 02:15:36;;;;;;;17.65;7.25;;;;;;;;;;5110554;28;20016;-68
2023/05/28 02:18:02;;;;;;;13.82;7.28;;;;;;;;;;5109798;28;20022;-68
2023/05/28 02:20:27;;;;;;;12.43;7.10;;;;;;;;;;5107766;28;20022;-68
2023/05/28 02:22:52;;;;;;;12.98;7.32;;;;;;;;;;5108992;28;20022;-68
2023/05/28 02:25:18;;;;;;;15.95;7.55;;;;;;;;;;5108415;28;20031;-68
2023/05/28 02:27:43;;;;;;;12.75;6.47;;;;;;;;;;5110157;28;20027;-68
2023/05/28 02:30:10;;;;;;;10.95;6.90;;;;;;;;;;5109780;28;20091;-68
2023/05/28 02:32:36;;;;;;;15.77;8.07;;;;;;;;;;5111956;28;20111;-68
2023/05/28 02:35:01;;;;;;;13.32;7.82;;;;;;;;;;5109776;28;20024;-68
2023/05/28 02:37:27;;;;;;;11.60;6.88;;;;;;;;;;5110236;28;20062;-68
2023/05/28 02:39:52;;;;;;;12.38;7.85;;;;;;;;;;5108038;28;20030;-68
2023/05/28 02:42:17;;;;;;;13.13;7.38;;;;;;;;;;5110495;28;20024;-68
2023/05/28 02:44:42;;;;;;;15.48;7.93;;;;;;;;;;5089773;28;20382;-68
2023/05/28 02:47:08;;;;;;;15.52;8.30;;;;;;;;;;5111424;28;20069;-68
2023/05/28 02:49:33;;;;;;;16.15;8.65;;;;;;;;;;5108443;28;20042;-68
2023/05/28 02:51:58;;;;;;;10.38;7.57;;;;;;;;;;5110720;28;20039;-68
2023/05/28 02:54:23;;;;;;;15.23;7.18;;;;;;;;;;5108657;28;20054;-68
2023/05/28 02:56:49;;;;;;;13.98;7.90;;;;;;;;;;5108832;28;20486;-68
2023/05/28 02:59:14;;;;;;;12.25;7.85;;;;;;;;;;5108289;28;20020;-68
2023/05/28 03:01:39;;;;;;;11.65;6.88;;;;;;;;;;5109101;28;20035;-68
2023/05/28 03:04:05;;;;;;;14.60;7.15;;;;;;;;;;5107861;28;20474;-68
2023/05/28 03:06:30;;;;;;;17.40;9.25;;;;;;;;;;5090747;28;20115;-68
2023/05/28 03:08:55;;;;;;;14.65;7.93;;;;;;;;;;5090979;28;20028;-68
2023/05/28 03:11:21;;;;;;;11.52;7.80;;;;;;;;;;5091312;28;20549;-68
2023/05/28 03:13:46;;;;;;;19.02;8.15;;;;;;;;;;5094403;28;20023;-68
2023/05/28 03:16:11;;;;;;;12.48;8.15;;;;;;;;;;5111549;28;20030;-68
2023/05/28 03:18:36;;;;;;;14.93;7.38;;;;;;;;;;5107496;28;20047;-68
2023/05/28 03:21:02;;;;;;;23.63;7.75;;;;;;;;;;5090833;28;20107;-68
2023/05/28 03:23:27;;;;;;;14.48;7.78;;;;;;;;;;5094726;28;20020;-68
2023/05/28 03:25:52;;;;;;;9.15;7.65;;;;;;;;;;5101343;28;20099;-68
2023/05/28 03:28:18;;;;;;;14.45;7.55;;;;;;;;;;5093615;28;20031;-68
2023/05/28 03:30:43;;;;;;;15.63;8.38;;;;;;;;;;5110764;28;20367;-68
2023/05/28 03:33:08;;;;;;;16.92;8.95;;;;;;;;;;5109321;28;20055;-68
2023/05/28 03:35:33;;;;;;;13.00;8.75;;;;;;;;;;5110582;28;20027;-68
2023/05/28 03:37:59;;;;;;;13.77;7.95;;;;;;;;;;5109865;28;20497;-68
2023/05/28 03:40:24;;;;;;;13.55;8.80;;;;;;;;;;5110656;28;20069;-68
2023/05/28 03:42:49;;;;;;;14.75;7.80;;;;;;;;;;5110225;28;20024;-68
2023/05/28 03:45:15;;;;;;;19.50;9.18;;;;;;;;;;5110889;28;20020;-68
2023/05/28 03:47:40;;;;;;;20.13;9.20;;;;;;;;;;5109602;28;20037;-68
2023/05/28 03:50:06;;;;;;;16.15;9.18;;;;;;;;;;5110590;28;20649;-68
2023/05/28 03:52:31;;;;;;;13.38;8.80;;;;;;;;;;5109617;28;20023;-68
2023/05/28 03:54:56;;;;;;;18.48;7.88;;;;;;;;;;5110157;28;20411;-68
2023/05/28 03:57:21;;;;;;;15.70;9.30;;;;;;;;;;5109631;28;20063;-68
2023/05/28 03:59:47;;;;;;;14.18;9.68;;;;;;;;;;5109226;28;20022;-68
2023/05/28 04:02:12;;;;;;;17.92;9.93;;;;;;;;;;5095753;28;20378;-68
2023/05/28 04:04:37;;;;;;;16.45;8.77;;;;;;;;;;5098697;28;20076;-68
2023/05/28 04:07:02;;;;;;;15.20;9.25;;;;;;;;;;5109057;28;20466;-68
2023/05/28 04:09:28;;;;;;;15.23;9.43;;;;;;;;;;5110132;28;20027;-68
2023/05/28 04:11:53;;;;;;;20.98;8.77;;;;;;;;;;5108273;28;20489;-68
2023/05/28 04:14:19;;;;;;;20.67;10.20;;;;;;;;;;5109638;28;20069;-68
2023/05/28 04:16:44;;;;;;;17.17;9.02;;;;;;;;;;5107983;28;20031;-68
2023/05/28 04:19:10;;;;;;;19.60;10.27;;;;;;;;;;5109214;28;20046;-68
2023/05/28 04:21:36;;;;;;;13.75;8.77;;;;;;;;;;5107468;28;20032;-68
2023/05/28 04:24:02;;;;;;;18.00;9.07;;;;;;;;;;5109080;28;20055;-68
2023/05/28 04:26:27;;;;;;;12.52;9.65;;;;;;;;;;5105113;28;20059;-66
2023/05/28 04:28:52;;;;;;;13.27;9.18;;;;;;;;;;5085965;28;20032;-67
2023/05/28 04:31:18;;;;;;;14.07;8.77;;;;;;;;;;5106015;28;20023;-67
2023/05/28 04:33:46;;;;;;;14.20;9.63;;;;;;;;;;5107707;28;20031;-67
2023/05/28 04:36:13;;;;;;;17.10;9.88;;;;;;;;;;5109577;28;20020;-68
2023/05/28 04:38:39;;;;;;;15.80;9.57;;;;;;;;;;5109062;28;20023;-67
2023/05/28 04:41:05;;;;;;;11.57;8.90;;;;;;;;;;5109415;28;20028;-67
2023/05/28 04:43:30;;;;;;;16.27;9.02;;;;;;;;;;5107237;28;20031;-67
2023/05/28 04:45:58;;;;;;;15.80;9.23;;;;;;;;;;5110175;28;20073;-67
2023/05/28 04:48:25;;;;;;;13.75;8.52;;;;;;;;;;5106434;28;20089;-67
2023/05/28 04:50:50;;;;;;;19.58;9.07;;;;;;;;;;5098403;28;20020;-67
2023/05/28 04:53:15;;;;;;;22.40;10.43;;;;;;;;;;5101882;28;20035;-67
2023/05/28 04:55:41;;;;;;;17.27;9.70;;;;;;;;;;5112360;28;20031;-67
2023/05/28 04:58:07;;;;;;;12.50;9.25;;;;;;;;;;5106993;28;20493;-67
2023/05/28 05:00:34;;;;;;;14.25;8.43;;;;;;;;;;5106541;28;20095;-67
2023/05/28 05:02:59;;;;;;;16.25;10.68;;;;;;;;;;5101586;28;20031;-67
2023/05/28 05:05:25;;;;;;;18.60;9.93;;;;;;;;;;5111632;28;20071;-67
2023/05/28 05:07:51;;;;;;;17.42;9.95;;;;;;;;;;5104093;28;20374;-67
2023/05/28 05:10:17;;;;;;;18.50;9.75;;;;;;;;;;5100634;28;20027;-66
2023/05/28 05:12:42;;;;;;;16.75;10.23;;;;;;;;;;5105300;28;20023;-65
2023/05/28 05:15:08;;;;;;;23.20;9.05;;;;;;;;;;5099674;28;20016;-67
2023/05/28 05:17:33;;;;;;;19.27;9.82;;;;;;;;;;5105331;28;20027;-67
2023/05/28 05:20:01;;;;;;;16.80;10.38;;;;;;;;;;5099945;28;20091;-67
2023/05/28 05:22:26;;;;;;;18.60;10.48;;;;;;;;;;5105188;28;20170;-67
2023/05/28 05:24:52;;;;;;;12.15;8.93;;;;;;;;;;5101934;28;20103;-67
2023/05/28 05:27:17;;;;;;;14.68;8.95;;;;;;;;;;5107872;28;20470;-67
2023/05/28 05:29:42;;;;;;;16.38;9.93;;;;;;;;;;5101305;28;20146;-67
2023/05/28 05:32:08;;;;;;;18.42;10.57;;;;;;;;;;5102209;28;20020;-67
2023/05/28 05:34:33;;;;;;;16.48;10.00;;;;;;;;;;5106275;28;20049;-67
2023/05/28 05:36:59;;;;;;;13.50;9.93;;;;;;;;;;5098156;28;20027;-67
2023/05/28 05:39:25;;;;;;;13.38;9.27;;;;;;;;;;5095351;28;20047;-67
2023/05/28 05:41:50;;;;;;;14.30;9.38;;;;;;;;;;5096213;28;20026;-68
2023/05/28 05:44:15;;;;;;;20.88;11.10;;;;;;;;;;5104726;28;20088;-68
2023/05/28 05:46:41;;;;;;;18.95;9.07;;;;;;;;;;5095637;28;20035;-68
2023/05/28 05:49:06;;;;;;;14.80;9.18;;;;;;;;;;5105649;28;20032;-67
2023/05/28 05:51:32;;;;;;;16.48;10.25;;;;;;;;;;5107264;28;20034;-68
2023/05/28 05:53:57;;;;;;;17.23;9.02;;;;;;;;;;5098692;28;20020;-68
2023/05/28 05:56:22;;;;;;;15.43;9.13;;;;;;;;;;5109601;28;20389;-67
2023/05/28 05:58:48;;;;;;;16.38;8.73;;;;;;;;;;5109188;28;20015;-68
2023/05/28 06:01:16;;;;;;;19.50;8.43;;;;;;;;;;5101141;28;20023;-68
2023/05/28 06:03:41;;;;;;;12.35;8.32;;;;;;;;;;5093652;28;20310;-67
2023/05/28 06:06:06;;;;;;;16.17;9.77;;;;;;;;;;5099153;28;20440;-68
2023/05/28 06:08:33;;;;;;;17.02;9.88;;;;;;;;;;5111574;28;20281;-68
2023/05/28 06:10:58;;;;;;;16.83;10.23;;;;;;;;;;5111514;28;20047;-68
2023/05/28 06:13:23;;;;;;;16.73;9.70;;;;;;;;;;5100648;28;20059;-67
2023/05/28 06:15:49;;;;;;;16.35;10.15;;;;;;;;;;5095105;28;20664;-68
2023/05/28 06:18:14;;;;;;;16.10;9.13;;;;;;;;;;5096042;28;20016;-68
2023/05/28 06:20:40;;;;;;;12.82;8.80;;;;;;;;;;5098633;28;20069;-68
2023/05/28 06:23:06;;;;;;;11.60;8.27;;;;;;;;;;5105681;28;20032;-67
2023/05/28 06:25:31;;;;;;;16.77;10.00;;;;;;;;;;5080619;28;20012;-67
2023/05/28 06:27:56;;;;;;;12.00;9.40;;;;;;;;;;5096107;28;20373;-67
2023/05/28 06:30:22;;;;;;;15.55;9.38;;;;;;;;;;5101764;28;20019;-68
2023/05/28 06:32:48;;;;;;;14.02;8.80;;;;;;;;;;5102446;28;20028;-68
2023/05/28 06:35:13;;;;;;;18.23;9.73;;;;;;;;;;5108444;28;20086;-68
2023/05/28 06:37:38;;;;;;;16.88;10.27;;;;;;;;;;5094286;28;20309;-68
2023/05/28 06:40:06;;;;;;;18.77;9.73;;;;;;;;;;5099634;28;20024;-68
2023/05/28 06:42:32;;;;;;;12.25;9.10;;;;;;;;;;5101340;28;20028;-67
2023/05/28 06:44:59;;;;;;;19.33;9.95;;;;;;;;;;5103062;28;20026;-68
2023/05/28 06:47:24;;;;;;;23.50;9.50;;;;;;;;;;5097716;28;20024;-67
2023/05/28 06:49:49;;;;;;;17.08;9.20;;;;;;;;;;5102590;28;20019;-68
2023/05/28 06:52:15;;;;;;;13.80;9.52;;;;;;;;;;5103315;28;20020;-68
2023/05/28 06:54:40;;;;;;;19.52;10.18;;;;;;;;;;5102966;28;20016;-68
2023/05/28 06:57:06;;;;;;;15.45;9.15;;;;;;;;;;5096052;28;20042;-67
2023/05/28 06:59:31;;;;;;;13.77;9.95;;;;;;;;;;5099558;28;20654;-67
2023/05/28 07:01:56;;;;;;;22.20;9.27;;;;;;;;;;5096009;28;20034;-67
2023/05/28 07:04:22;;;;;;;11.40;8.37;;;;;;;;;;5105404;28;20743;-68
2023/05/28 07:06:47;;;;;;;15.87;9.63;;;;;;;;;;5091844;28;20274;-68
2023/05/28 07:09:12;;;;;;;18.20;10.40;;;;;;;;;;5091613;28;20339;-67
2023/05/28 07:11:38;;;;;;;11.18;8.10;;;;;;;;;;5092258;28;20039;-68
2023/05/28 07:14:03;;;;;;;18.85;10.73;;;;;;;;;;5096667;28;20051;-68
2023/05/28 07:16:28;;;;;;;14.23;9.33;;;;;;;;;;5111496;28;20383;-67
2023/05/28 07:18:53;;;;;;;15.30;8.95;;;;;;;;;;5111226;28;20261;-68
2023/05/28 07:21:19;;;;;;;20.67;11.00;;;;;;;;;;5110940;28;20032;-68
2023/05/28 07:23:44;;;;;;;16.95;9.05;;;;;;;;;;5109816;28;20345;-68
2023/05/28 07:26:10;;;;;;;11.82;9.18;;;;;;;;;;5100105;28;20032;-68
2023/05/28 07:28:35;;;;;;;16.52;9.05;;;;;;;;;;5091182;28;20045;-68
2023/05/28 07:31:00;;;;;;;19.50;9.13;;;;;;;;;;5087692;28;20117;-68
2023/05/28 07:33:25;;;;;;;17.08;9.05;;;;;;;;;;5061871;28;20096;-67
2023/05/28 07:35:51;;;;;;;14.73;8.03;;;;;;;;;;5071265;28;20438;-67
2023/05/28 07:38:16;;;;;;;17.38;8.80;;;;;;;;;;5097135;28;20293;-67
2023/05/28 07:40:42;;;;;;;13.20;8.93;;;;;;;;;;5103494;28;20012;-68
2023/05/28 07:43:07;;;;;;;12.55;7.82;;;;;;;;;;5108734;28;20477;-68
2023/05/28 07:45:32;;;;;;;12.52;7.68;;;;;;;;;;5105447;28;20015;-68
2023/05/28 07:47:57;;;;;;;13.00;8.37;;;;;;;;;;5093016;28;20027;-67
2023/05/28 07:50:23;;;;;;;14.68;8.00;;;;;;;;;;5105132;28;20277;-68
2023/05/28 07:52:48;;;;;;;16.08;8.35;;;;;;;;;;5109772;28;20083;-67
2023/05/28 07:55:13;;;;;;;11.57;8.18;;;;;;;;;;5108718;28;20088;-68
2023/05/28 07:57:38;;;;;;;14.32;7.25;;;;;;;;;;5109190;28;20386;-68
2023/05/28 08:00:06;;;;;;;11.33;7.90;;;;;;;;;;5105427;28;20027;-68
2023/05/28 08:02:32;;;;;;;16.08;7.80;;;;;;;;;;5092504;28;20747;-68
2023/05/28 08:04:57;;;;;;;11.02;6.65;;;;;;;;;;5090651;28;20032;-67
2023/05/28 08:07:22;;;;;;;10.88;6.68;;;;;;;;;;5097611;28;20107;-67
2023/05/28 08:09:47;;;;;;;16.53;7.03;;;;;;;;;;5101756;28;20363;-68
2023/05/28 08:12:13;;;;;;;14.13;7.55;;;;;;;;;;5097220;28;20351;-67
2023/05/28 08:14:38;;;;;;;13.93;7.80;;;;;;;;;;5092323;28;20048;-68
2023/05/28 08:17:03;;;;;;;15.97;7.00;;;;;;;;;;5100333;28;20036;-68
2023/05/28 08:19:29;;;;;;;15.27;7.13;;;;;;;;;;5099447;28;20769;-67
2023/05/28 08:21:54;;;;;;;10.77;6.45;;;;;;;;;;5098835;28;20036;-67
2023/05/28 08:24:20;;;;;;;13.23;6.97;;;;;;;;;;5098572;28;20497;-67
2023/05/28 08:26:46;;;;;;;14.63;6.95;;;;;;;;;;5098308;28;20049;-67
2023/05/28 08:29:11;;;;;;;7.72;5.82;;;;;;;;;;5094545;28;20095;-68
2023/05/28 08:31:36;;;;;;;8.85;6.30;;;;;;;;;;5099138;28;20398;-67
2023/05/28 08:34:02;;;;;;;10.23;6.60;;;;;;;;;;5111004;28;20019;-67
2023/05/28 08:36:27;;;;;;;11.75;6.80;;;;;;;;;;5094614;28;20604;-68
2023/05/28 08:38:52;;;;;;;13.77;6.93;;;;;;;;;;5094427;28;20031;-67
2023/05/28 08:41:18;;;;;;;11.98;6.55;;;;;;;;;;5093974;28;20359;-68
2023/05/28 08:43:43;;;;;;;13.32;7.50;;;;;;;;;;5100654;28;20059;-68
2023/05/28 08:46:09;;;;;;;14.93;7.10;;;;;;;;;;5102370;28;20075;-68
2023/05/28 08:48:34;;;;;;;20.90;6.82;;;;;;;;;;5100277;28;20031;-67
2023/05/28 08:51:00;;;;;;;12.60;6.72;;;;;;;;;;5098438;28;20028;-67
2023/05/28 08:53:30;;;;;;;11.38;6.45;;;;;;;;;;5102341;28;20043;-68
2023/05/28 08:55:55;;;;;;;14.88;6.47;;;;;;;;;;5099629;28;20073;-68
2023/05/28 08:58:20;;;;;;;10.52;6.07;;;;;;;;;;5101063;28;20031;-67
2023/05/28 09:00:46;;;;;;;10.03;6.40;;;;;;;;;;5098021;28;20080;-67
2023/05/28 09:03:12;;;;;;;12.50;6.10;;;;;;;;;;5100825;28;20285;-67
2023/05/28 09:05:38;;;;;;;18.98;5.93;;;;;;;;;;5098340;28;20038;-67
2023/05/28 09:08:05;;;;;;;11.27;5.97;;;;;;;;;;5096765;28;20012;-67
2023/05/28 09:10:32;;;;;;;18.67;5.97;;;;;;;;;;5099845;28;20072;-67
2023/05/28 09:12:59;;;;;;;11.07;6.15;;;;;;;;;;5106555;28;20024;-68
2023/05/28 09:15:24;;;;;;;11.65;5.88;;;;;;;;;;5109793;28;20091;-67
2023/05/28 09:17:49;;;;;;;12.70;6.05;;;;;;;;;;5097134;28;20059;-66
2023/05/28 09:20:15;;;;;;;8.48;5.68;;;;;;;;;;5100910;28;20159;-67
2023/05/28 09:22:40;;;;;;;10.82;6.45;;;;;;;;;;5097312;28;20466;-67
2023/05/28 09:25:06;;;;;;;13.35;6.53;;;;;;;;;;5100721;28;20390;-67
2023/05/28 09:27:32;;;;;;;9.65;5.97;;;;;;;;;;5097008;28;20497;-67
2023/05/28 09:30:01;;;;;;;11.63;5.97;;;;;;;;;;5100900;28;20107;-66
2023/05/28 09:32:27;;;;;;;14.98;6.93;;;;;;;;;;5096532;28;20583;-67
2023/05/28 09:34:52;;;;;;;10.57;5.82;;;;;;;;;;5100703;28;20043;-67
2023/05/28 09:37:17;;;;;;;11.27;6.05;;;;;;;;;;5097989;28;20478;-66
2023/05/28 09:39:43;;;;;;;10.85;6.50;;;;;;;;;;5099750;28;20405;-67
2023/05/28 09:42:13;;;;;;;12.13;6.32;;;;;;;;;;5097512;28;20035;-65
2023/05/28 09:44:38;;;;;;;12.55;5.05;;;;;;;;;;5099707;28;20030;-66
2023/05/28 09:47:16;;;;;;;17.92;6.15;;;;;;;;;;5096188;28;20098;-66
2023/05/28 09:49:46;;;;;;;12.10;6.40;;;;;;;;;;5110029;28;20023;-69
2023/05/28 09:52:21;;;;;;;11.68;6.65;;;;;;;;;;5099987;28;20032;-70
2023/05/28 09:54:51;;;;;;;16.30;6.68;;;;;;;;;;5087731;28;20020;-66
2023/05/28 09:57:17;;;;;;;10.38;6.05;;;;;;;;;;5092718;28;20054;-65
2023/05/28 09:59:44;;;;;;;9.45;5.45;;;;;;;;;;5092617;28;20479;-67
2023/05/28 10:02:22;;;;;;;11.35;5.50;;;;;;;;;;5093021;28;20052;-65
2023/05/28 10:04:52;;;;;;;16.02;6.55;;;;;;;;;;5112145;28;20543;-65
2023/05/28 10:07:19;;;;;;;9.25;6.30;;;;;;;;;;5111243;28;20055;-67
2023/05/28 10:09:44;;;;;;;10.43;5.18;;;;;;;;;;5111890;28;20027;-67
2023/05/28 10:12:11;;;;;;;10.32;5.88;;;;;;;;;;5110027;28;20083;-67
2023/05/28 10:14:37;;;;;;;9.90;5.75;;;;;;;;;;5102149;28;20620;-67
2023/05/28 10:17:03;;;;;;;13.15;5.90;;;;;;;;;;5109004;28;20642;-67
2023/05/28 10:19:28;;;;;;;11.50;6.78;;;;;;;;;;5096743;28;20059;-66
2023/05/28 10:21:55;;;;;;;11.05;5.65;;;;;;;;;;5054073;28;20026;-66
2023/05/28 10:24:20;;;;;;;11.68;5.82;;;;;;;;;;5067407;28;20900;-66
2023/05/28 10:26:46;;;;;;;16.45;6.53;;;;;;;;;;5068603;28;20030;-66
2023/05/28 10:29:11;;;;;;;14.30;5.25;;;;;;;;;;5058773;28;20804;-66
2023/05/28 10:31:36;;;;;;;11.33;5.47;;;;;;;;;;5059819;28;20875;-66
2023/05/28 10:34:02;;;;;;;10.80;5.77;;;;;;;;;;5066611;28;20285;-66
2023/05/28 10:36:27;;;;;;;26.50;6.13;;;;;;;;;;5067475;28;20418;-68
2023/05/28 10:38:53;;;;;;;8.55;4.85;;;;;;;;;;5067441;28;21378;-67
2023/05/28 10:41:22;;;;;;;10.20;5.80;;;;;;;;;;5063328;28;21071;-67
2023/05/28 10:43:47;;;;;;;10.18;5.55;;;;;;;;;;5100029;28;20096;-63
2023/05/28 10:46:25;;;;;;;10.18;5.65;;;;;;;;;;5092440;28;20024;-64
2023/05/28 10:49:08;;;;;;;10.05;5.38;;;;;;;;;;5094193;28;20063;-67
2023/05/28 10:51:50;;;;;;;11.20;5.18;;;;;;;;;;5105613;28;20489;-65
2023/05/28 10:54:16;;;;;;;11.57;5.05;;;;;;;;;;5081404;28;20028;-63
2023/05/28 10:57:00;;;;;;;7.53;5.75;;;;;;;;;;5092550;28;20474;-65
2023/05/28 10:59:44;;;;;;;8.70;4.72;;;;;;;;;;5098737;28;20469;-65
2023/05/28 11:02:10;;;;;;;12.63;5.53;;;;;;;;;;5096890;28;20106;-64
2023/05/28 11:04:35;;;;;;;11.30;5.32;;;;;;;;;;5111976;28;20098;-65
2023/05/28 11:07:01;;;;;;;9.93;5.38;;;;;;;;;;5096576;28;20130;-64
2023/05/28 11:09:26;;;;;;;13.15;5.53;;;;;;;;;;5095294;28;20077;-64
2023/05/28 11:11:52;;;;;;;15.20;6.30;;;;;;;;;;5095948;28;20032;-65
2023/05/28 11:14:17;;;;;;;8.52;5.03;;;;;;;;;;5107994;28;20020;-64
2023/05/28 11:16:43;;;;;;;10.37;5.53;;;;;;;;;;5094918;28;20416;-64
2023/05/28 11:19:09;;;;;;;9.20;5.50;;;;;;;;;;5098265;28;20391;-67
2023/05/28 11:21:48;;;;;;;9.38;4.72;;;;;;;;;;5094827;28;20624;-67
2023/05/28 11:24:14;;;;;;;11.52;5.65;;;;;;;;;;5099000;28;20028;-67
2023/05/28 11:26:39;;;;;;;16.77;5.70;;;;;;;;;;5105984;28;20030;-67
2023/05/28 11:29:05;;;;;;;8.90;5.50;;;;;;;;;;5104929;28;20281;-72
2023/05/28 11:31:37;;;;;;;12.82;5.70;;;;;;;;;;5097024;28;20028;-68
2023/05/28 11:34:02;;;;;;;10.82;5.53;;;;;;;;;;5107742;28;20429;-67
2023/05/28 11:36:27;;;;;;;10.40;5.47;;;;;;;;;;5079235;28;20085;-67
2023/05/28 11:39:02;;;;;;;7.63;5.35;;;;;;;;;;5068945;28;20027;-67
2023/05/28 11:41:28;;;;;;;8.57;5.30;;;;;;;;;;5073845;28;20050;-66
2023/05/28 11:43:53;;;;;;;8.75;5.63;;;;;;;;;;5102760;28;20027;-67
2023/05/28 11:46:21;;;;;;;12.03;5.50;;;;;;;;;;5111030;28;20466;-66
2023/05/28 11:48:46;;;;;;;12.20;5.85;;;;;;;;;;5103746;28;20273;-68
2023/05/28 11:51:12;;;;;;;8.60;4.63;;;;;;;;;;5097155;28;20486;-67
2023/05/28 11:53:41;;;;;;;10.10;4.45;;;;;;;;;;5109840;28;20278;-66
2023/05/28 11:56:10;;;;;;;13.25;4.72;;;;;;;;;;5100084;28;20028;-68
2023/05/28 11:58:43;;;;;;;10.23;5.20;;;;;;;;;;5105506;28;20028;-68
2023/05/28 12:01:12;;;;;;;9.43;5.18;;;;;;;;;;5078568;28;20023;-67
2023/05/28 12:03:37;;;;;;;8.88;4.85;;;;;;;;;;5111514;28;20035;-68
2023/05/28 12:06:03;;;;;;;8.30;4.60;;;;;;;;;;5092475;28;20088;-67
2023/05/28 12:08:28;;;;;;;12.23;6.13;;;;;;;;;;5071774;28;20296;-67
2023/05/28 12:10:59;;;;;;;9.18;5.75;;;;;;;;;;5072050;28;20036;-67
2023/05/28 12:13:29;;;;;;;10.82;5.85;;;;;;;;;;5068510;28;20092;-67
2023/05/28 12:16:04;;;;;;;7.22;5.10;;;;;;;;;;5070833;28;20020;-67
2023/05/28 12:18:29;;;;;;;9.63;5.70;;;;;;;;;;5069888;28;20031;-66
2023/05/28 12:20:58;;;;;;;13.03;5.70;;;;;;;;;;5070413;28;20066;-67
2023/05/28 12:23:23;;;;;;;11.57;5.57;;;;;;;;;;5088262;28;20400;-66
2023/05/28 12:25:49;;;;;;;8.83;5.27;;;;;;;;;;5113970;28;20099;-65
2023/05/28 12:28:15;;;;;;;14.60;6.07;;;;;;;;;;5111204;28;20775;-66
2023/05/28 12:30:41;;;;;;;9.98;5.65;;;;;;;;;;5110932;28;20034;-66
2023/05/28 12:33:07;;;;;;;9.15;5.68;;;;;;;;;;5108176;28;20055;-66
2023/05/28 12:35:32;;;;;;;10.07;5.35;;;;;;;;;;5113288;28;20062;-66
2023/05/28 12:37:58;;;;;;;12.47;5.70;;;;;;;;;;5111030;28;20030;-66
2023/05/28 12:40:23;;;;;;;10.87;5.63;;;;;;;;;;5110870;28;20280;-67
2023/05/28 12:42:48;;;;;;;21.63;5.77;;;;;;;;;;5107177;28;20316;-66
2023/05/28 12:45:14;;;;;;;11.20;5.37;;;;;;;;;;5109838;28;20270;-66
2023/05/28 12:47:39;;;;;;;11.48;5.32;;;;;;;;;;5107793;28;20085;-66
2023/05/28 12:50:04;;;;;;;8.00;5.37;;;;;;;;;;5078002;28;20855;-66
2023/05/28 12:52:33;;;;;;;11.30;5.10;;;;;;;;;;5069180;28;20362;-65
2023/05/28 12:54:58;;;;;;;10.77;5.45;;;;;;;;;;5071076;28;20019;-65
2023/05/28 12:57:24;;;;;;;8.27;4.75;;;;;;;;;;5070323;28;20039;-64
2023/05/28 12:59:49;;;;;;;14.25;5.38;;;;;;;;;;5070305;28;20015;-64
2023/05/28 13:02:14;;;;;;;9.73;5.07;;;;;;;;;;5065449;28;20044;-64
2023/05/28 13:04:40;;;;;;;10.63;5.40;;;;;;;;;;5063771;28;20147;-62
2023/05/28 13:07:07;;;;;;;9.23;4.85;;;;;;;;;;5069601;28;21186;-64
2023/05/28 13:09:33;;;;;;;10.60;4.82;;;;;;;;;;5067839;28;20188;-64
2023/05/28 13:11:58;;;;;;;10.10;5.28;;;;;;;;;;5070294;28;20027;-64
2023/05/28 13:14:23;;;;;;;6.85;4.90;;;;;;;;;;5068392;28;20028;-64
2023/05/28 13:16:49;;;;;;;8.20;4.80;;;;;;;;;;5069787;28;20118;-64
2023/05/28 13:19:14;;;;;;;7.85;4.97;;;;;;;;;;5068970;28;20304;-64
2023/05/28 13:21:39;;;;;;;6.03;4.47;;;;;;;;;;5069736;28;20035;-64
2023/05/28 13:24:06;;;;;;;11.77;5.20;;;;;;;;;;5063782;28;20930;-64
2023/05/28 13:26:32;;;;;;;7.30;5.03;;;;;;;;;;5068842;28;20390;-64
2023/05/28 13:28:58;;;;;;;10.32;5.07;;;;;;;;;;5065959;28;20019;-64
2023/05/28 13:31:23;;;;;;;7.00;4.07;;;;;;;;;;5097982;28;20024;-64
2023/05/28 13:33:48;;;;;;;9.17;4.73;;;;;;;;;;5107996;28;20076;-63
2023/05/28 13:36:14;;;;;;;7.63;4.40;;;;;;;;;;5110420;28;20028;-64
2023/05/28 13:38:41;;;;;;;9.43;4.68;;;;;;;;;;5103120;28;20100;-65
2023/05/28 13:41:06;;;;;;;8.95;3.80;;;;;;;;;;5105871;28;20023;-64
2023/05/28 13:43:31;;;;;;;7.78;4.63;;;;;;;;;;5093636;28;20039;-64
2023/05/28 13:45:58;;;;;;;10.27;4.43;;;;;;;;;;5094626;28;20130;-65
2023/05/28 13:48:23;;;;;;;7.97;4.57;;;;;;;;;;5104377;28;20270;-65
2023/05/28 13:50:49;;;;;;;8.75;4.80;;;;;;;;;;5064305;28;20875;-65
2023/05/28 13:53:14;;;;;;;5.75;3.80;;;;;;;;;;5069941;28;20027;-65
2023/05/28 13:55:40;;;;;;;5.80;3.58;;;;;;;;;;5079401;28;20024;-65
2023/05/28 13:58:07;;;;;;;5.13;3.50;;;;;;;;;;5092751;28;20050;-65
2023/05/28 14:00:32;;;;;;;6.25;3.95;;;;;;;;;;5093394;28;20081;-65
2023/05/28 14:02:57;;;;;;;5.40;3.53;;;;;;;;;;5101815;28;20031;-64
2023/05/28 14:05:22;;;;;;;10.40;3.97;;;;;;;;;;5098118;28;20773;-64
2023/05/28 14:07:48;;;;;;;9.00;4.00;;;;;;;;;;5090380;28;20273;-64
2023/05/28 14:10:13;;;;;;;5.60;3.55;;;;;;;;;;5075073;28;20360;-65
2023/05/28 14:12:39;;;;;;;8.55;3.95;;;;;;;;;;5098749;28;20073;-64
2023/05/28 14:15:04;;;;;;;10.32;3.72;;;;;;;;;;5100107;28;20016;-64
2023/05/28 14:17:30;;;;;;;10.40;4.22;;;;;;;;;;5110602;28;20031;-64
2023/05/28 14:19:55;;;;;;;10.47;4.43;;;;;;;;;;5095185;28;20074;-65
2023/05/28 14:22:20;;;;;;;10.37;4.83;;;;;;;;;;5092837;28;20265;-63
2023/05/28 14:24:45;;;;;;;7.60;4.30;;;;;;;;;;5098616;28;20270;-64